createdAt,value
2019-04-07T00:00:38.076Z,106.77
2019-04-07T00:03:06.851Z,94.77
2019-04-07T00:05:36.323Z,70.67
2019-04-07T00:08:04.572Z,66.67
2019-04-07T00:10:33.064Z,55.83
2019-04-07T00:13:01.259Z,51.93
2019-04-07T00:15:29.602Z,50.77
2019-04-07T00:17:57.877Z,51.10
2019-04-07T00:20:26.693Z,50.87
2019-04-07T00:22:55.356Z,47.70
2019-04-07T00:25:24.055Z,45.00
2019-04-07T00:27:52.197Z,44.10
2019-04-07T00:30:20.398Z,37.13
2019-04-07T00:32:48.702Z,30.17
2019-04-07T00:35:26.897Z,25.80
2019-04-07T00:37:47.027Z,24.73
2019-04-07T00:40:15.188Z,19.67
2019-04-07T00:42:43.458Z,18.47
2019-04-07T00:45:11.703Z,14.10
2019-04-07T00:47:40.306Z,17.67
2019-04-07T00:50:08.801Z,18.07
2019-04-07T00:52:37.627Z,21.23
2019-04-07T00:55:06.600Z,21.60
2019-04-07T00:57:35.375Z,22.17
2019-04-07T01:00:07.258Z,21.47
2019-04-07T01:02:35.555Z,22.00
2019-04-07T01:05:04.974Z,28.97
2019-04-07T01:07:34.579Z,30.73
2019-04-07T01:10:03.532Z,28.07
2019-04-07T01:12:32.137Z,27.30
2019-04-07T01:15:00.340Z,26.87
2019-04-07T01:17:29.128Z,23.50
2019-04-07T01:19:57.557Z,25.17
2019-04-07T01:22:25.773Z,27.97
2019-04-07T01:24:53.952Z,27.50
2019-04-07T01:27:22.485Z,28.50
2019-04-07T01:29:50.785Z,31.30
2019-04-07T01:32:20.242Z,29.67
2019-04-07T01:34:49.209Z,41.30
2019-04-07T01:37:17.640Z,34.77
2019-04-07T01:39:45.872Z,24.13
2019-04-07T01:42:15.845Z,21.73
2019-04-07T01:45:02.658Z,24.00
2019-04-07T01:47:33.135Z,34.50
2019-04-07T01:50:15.184Z,31.73
2019-04-07T01:52:53.422Z,28.50
2019-04-07T01:55:23.545Z,26.63
2019-04-07T01:58:06.158Z,25.33
2019-04-07T02:00:42.907Z,28.10
2019-04-07T02:03:12.798Z,27.13
2019-04-07T02:05:59.136Z,29.30
2019-04-07T02:08:32.892Z,32.30
2019-04-07T02:11:06.094Z,33.30
2019-04-07T02:13:48.300Z,32.77
2019-04-07T02:16:35.595Z,31.97
2019-04-07T02:19:08.716Z,31.30
2019-04-07T02:21:41.942Z,32.13
2019-04-07T02:24:15.759Z,40.43
2019-04-07T02:26:46.423Z,39.10
2019-04-07T02:29:29.641Z,35.20
2019-04-07T02:32:03.619Z,33.07
2019-04-07T02:34:42.888Z,33.30
2019-04-07T02:37:13.995Z,28.93
2019-04-07T02:39:47.139Z,31.33
2019-04-07T02:42:30.312Z,30.83
2019-04-07T02:45:01.307Z,33.30
2019-04-07T02:47:41.656Z,35.63
2019-04-07T02:50:24.428Z,33.47
2019-04-07T02:52:57.643Z,35.20
2019-04-07T02:55:30.531Z,37.40
2019-04-07T02:58:03.244Z,36.07
2019-04-07T03:00:36.492Z,35.47
2019-04-07T03:03:12.855Z,34.83
2019-04-07T03:05:49.622Z,32.57
2019-04-07T03:08:29.034Z,32.93
2019-04-07T03:11:00.110Z,30.57
2019-04-07T03:13:30.337Z,38.33
2019-04-07T03:16:04.325Z,51.27
2019-04-07T03:18:37.522Z,40.03
2019-04-07T03:21:24.644Z,38.13
2019-04-07T03:24:11.228Z,39.07
2019-04-07T03:26:59.459Z,42.23
2019-04-07T03:29:29.640Z,40.53
2019-04-07T03:32:03.034Z,38.33
2019-04-07T03:34:42.389Z,41.17
2019-04-07T03:37:25.853Z,40.97
2019-04-07T03:39:44.153Z,37.17
2019-04-07T03:42:14.531Z,57.10
2019-04-07T03:44:44.868Z,39.80
2019-04-07T03:47:27.231Z,40.93
2019-04-07T03:50:00.063Z,41.23
2019-04-07T03:52:46.855Z,47.23
2019-04-07T03:55:17.192Z,59.70
2019-04-07T03:58:03.696Z,46.17
2019-04-07T04:00:44.354Z,42.27
2019-04-07T04:03:14.792Z,43.63
2019-04-07T04:06:00.686Z,35.50
2019-04-07T04:08:31.659Z,31.17
2019-04-07T04:11:06.020Z,30.03
2019-04-07T04:13:37.834Z,29.50
2019-04-07T04:16:07.946Z,31.70
2019-04-07T04:18:37.457Z,43.85
2019-04-07T04:21:06.961Z,32.30
2019-04-07T04:23:35.672Z,31.00
2019-04-07T04:26:04.387Z,31.37
2019-04-07T04:28:33.391Z,30.70
2019-04-07T04:31:01.678Z,30.97
2019-04-07T04:33:30.970Z,38.47
2019-04-07T04:35:59.237Z,43.10
2019-04-07T04:38:27.365Z,40.43
2019-04-07T04:40:56.896Z,35.27
2019-04-07T04:43:25.554Z,39.90
2019-04-07T04:45:54.681Z,38.87
2019-04-07T04:48:23.693Z,38.27
2019-04-07T04:50:52.394Z,39.07
2019-04-07T04:53:21.020Z,37.00
2019-04-07T04:55:49.522Z,38.20
2019-04-07T04:58:18.016Z,39.10
2019-04-07T05:00:46.130Z,43.47
2019-04-07T05:03:14.967Z,39.67
2019-04-07T05:05:43.500Z,36.13
2019-04-07T05:08:12.742Z,32.30
2019-04-07T05:10:41.656Z,30.57
2019-04-07T05:13:09.929Z,28.33
2019-04-07T05:15:39.016Z,28.63
2019-04-07T05:18:07.473Z,29.50
2019-04-07T05:20:35.695Z,28.53
2019-04-07T05:23:04.151Z,28.77
2019-04-07T05:25:32.749Z,27.13
2019-04-07T05:28:01.289Z,29.50
2019-04-07T05:30:29.434Z,30.73
2019-04-07T05:32:57.627Z,31.00
2019-04-07T05:35:25.825Z,28.87
2019-04-07T05:38:02.308Z,25.27
2019-04-07T05:40:24.550Z,27.27
2019-04-07T05:42:53.184Z,29.00
2019-04-07T05:45:21.603Z,30.77
2019-04-07T05:47:50.791Z,30.60
2019-04-07T05:50:20.141Z,26.27
2019-04-07T05:52:48.833Z,24.93
2019-04-07T05:55:20.633Z,25.17
2019-04-07T05:57:47.347Z,27.63
2019-04-07T06:00:16.637Z,26.73
2019-04-07T06:02:45.783Z,23.63
2019-04-07T06:05:16.190Z,20.70
2019-04-07T06:07:44.597Z,20.20
2019-04-07T06:10:13.335Z,19.63
2019-04-07T06:12:44.903Z,17.60
2019-04-07T06:15:11.834Z,15.27
2019-04-07T06:17:41.179Z,16.53
2019-04-07T06:20:13.593Z,15.33
2019-04-07T06:22:39.298Z,16.67
2019-04-07T06:25:07.610Z,20.57
2019-04-07T06:27:35.868Z,19.40
2019-04-07T06:30:08.474Z,15.37
2019-04-07T06:32:38.451Z,11.60
2019-04-07T06:35:07.478Z,10.07
2019-04-07T06:37:36.323Z,9.27
2019-04-07T06:40:05.614Z,8.40
2019-04-07T06:42:34.314Z,10.50
2019-04-07T06:45:02.920Z,13.47
2019-04-07T06:47:38.795Z,12.90
2019-04-07T06:50:08.675Z,8.67
2019-04-07T06:52:47.697Z,12.10
2019-04-07T06:55:34.122Z,9.10
2019-04-07T06:58:06.078Z,8.30
2019-04-07T07:00:54.941Z,7.17
2019-04-07T07:03:26.180Z,6.57
2019-04-07T07:05:56.147Z,7.40
2019-04-07T07:08:46.397Z,7.80
2019-04-07T07:11:24.628Z,7.73
2019-04-07T07:13:49.922Z,7.67
2019-04-07T07:16:20.606Z,24.10
2019-04-07T07:19:08.577Z,23.13
2019-04-07T07:21:53.704Z,8.53
2019-04-07T07:24:25.233Z,8.77
2019-04-07T07:26:51.875Z,8.50
2019-04-07T07:29:20.274Z,7.73
2019-04-07T07:31:51.769Z,9.90
2019-04-07T07:34:18.724Z,9.07
2019-04-07T07:36:49.831Z,7.73
2019-04-07T07:39:17.609Z,8.13
2019-04-07T07:41:46.199Z,9.13
2019-04-07T07:44:15.531Z,16.93
2019-04-07T07:46:44.329Z,18.30
2019-04-07T07:49:13.595Z,19.53
2019-04-07T07:51:45.032Z,17.60
2019-04-07T07:54:14.253Z,28.53
2019-04-07T07:56:47.417Z,38.87
2019-04-07T07:59:12.305Z,25.87
2019-04-07T08:01:44.258Z,33.43
2019-04-07T08:04:10.731Z,35.07
2019-04-07T08:06:40.942Z,14.27
2019-04-07T08:09:13.731Z,17.20
2019-04-07T08:11:39.045Z,12.73
2019-04-07T08:14:07.831Z,22.80
2019-04-07T08:16:37.287Z,15.67
2019-04-07T08:19:08.437Z,10.73
2019-04-07T08:21:36.929Z,13.93
2019-04-07T08:24:05.125Z,24.37
2019-04-07T08:26:33.576Z,11.00
2019-04-07T08:29:05.746Z,11.30
2019-04-07T08:31:32.684Z,11.70
2019-04-07T08:34:01.531Z,13.90
2019-04-07T08:36:30.408Z,16.47
2019-04-07T08:38:59.499Z,13.50
2019-04-07T08:41:27.810Z,19.57
2019-04-07T08:43:57.752Z,23.83
2019-04-07T08:46:29.964Z,30.17
2019-04-07T08:48:59.081Z,18.67
2019-04-07T08:51:30.734Z,20.80
2019-04-07T08:53:57.465Z,23.17
2019-04-07T08:56:26.876Z,24.50
2019-04-07T08:58:56.676Z,25.87
2019-04-07T09:01:26.901Z,25.03
2019-04-07T09:03:56.045Z,21.27
2019-04-07T09:06:27.272Z,17.70
2019-04-07T09:08:54.893Z,16.77
2019-04-07T09:11:24.861Z,14.03
2019-04-07T09:13:54.796Z,13.60
2019-04-07T09:16:44.695Z,14.97
2019-04-07T09:19:14.964Z,12.57
2019-04-07T09:21:54.344Z,13.37
2019-04-07T09:24:41.887Z,11.80
2019-04-07T09:27:25.772Z,12.93
2019-04-07T09:29:59.013Z,10.43
2019-04-07T09:32:43.883Z,10.03
2019-04-07T09:35:30.951Z,10.50
2019-04-07T09:38:07.989Z,13.47
2019-04-07T09:40:42.218Z,16.23
2019-04-07T09:43:30.570Z,13.47
2019-04-07T09:46:15.638Z,10.27
2019-04-07T09:48:57.628Z,9.67
2019-04-07T09:51:44.893Z,10.53
2019-04-07T09:54:30.486Z,10.57
2019-04-07T09:57:05.727Z,11.20
2019-04-07T09:59:35.025Z,12.37
2019-04-07T10:02:21.540Z,10.23
2019-04-07T10:05:11.145Z,9.60
2019-04-07T10:07:54.666Z,12.00
2019-04-07T10:10:48.322Z,11.33
2019-04-07T10:13:21.572Z,7.60
2019-04-07T10:15:51.679Z,7.47
2019-04-07T10:18:27.567Z,6.10
2019-04-07T10:21:06.613Z,6.27
2019-04-07T10:23:53.047Z,8.67
2019-04-07T10:26:26.954Z,7.30
2019-04-07T10:28:56.943Z,8.00
2019-04-07T10:31:38.773Z,6.33
2019-04-07T10:34:18.212Z,6.67
2019-04-07T10:36:48.608Z,6.00
2019-04-07T10:39:30.427Z,9.13
2019-04-07T10:42:03.048Z,6.00
2019-04-07T10:44:35.798Z,5.80
2019-04-07T10:47:21.202Z,6.00
2019-04-07T10:49:59.269Z,5.10
2019-04-07T10:52:34.793Z,5.97
2019-04-07T10:55:14.201Z,5.37
2019-04-07T10:57:47.207Z,5.67
2019-04-07T11:00:30.258Z,5.30
2019-04-07T11:03:02.043Z,6.23
2019-04-07T11:05:41.183Z,5.50
2019-04-07T11:08:26.137Z,5.80
2019-04-07T11:10:56.210Z,5.27
2019-04-07T11:13:42.919Z,7.23
2019-04-07T11:16:21.759Z,9.30
2019-04-07T11:18:57.517Z,7.40
2019-04-07T11:21:33.911Z,5.17
2019-04-07T11:24:19.768Z,5.73
2019-04-07T11:26:56.812Z,5.67
2019-04-07T11:29:31.437Z,5.00
2019-04-07T11:32:02.441Z,5.17
2019-04-07T11:34:33.050Z,4.87
2019-04-07T11:37:13.255Z,5.10
2019-04-07T11:39:49.954Z,4.97
2019-04-07T11:42:35.958Z,5.37
2019-04-07T11:45:08.210Z,5.00
2019-04-07T11:47:41.628Z,5.47
2019-04-07T11:50:11.499Z,5.10
2019-04-07T11:52:47.258Z,6.00
2019-04-07T11:55:25.742Z,5.07
2019-04-07T11:58:17.739Z,8.40
2019-04-07T12:01:03.577Z,6.13
2019-04-07T12:03:34.319Z,10.30
2019-04-07T12:06:11.360Z,7.50
2019-04-07T12:09:00.481Z,8.73
2019-04-07T12:11:34.387Z,7.73
2019-04-07T12:14:17.814Z,6.70
2019-04-07T12:16:47.792Z,6.93
2019-04-07T12:19:33.415Z,7.72
2019-04-07T12:22:10.471Z,9.70
2019-04-07T12:24:39.193Z,8.23
2019-04-07T12:27:21.148Z,8.00
2019-04-07T12:30:01.130Z,8.20
2019-04-07T12:32:47.905Z,8.10
2019-04-07T12:35:26.189Z,7.10
2019-04-07T12:38:01.896Z,7.37
2019-04-07T12:40:32.291Z,7.30
2019-04-07T12:43:12.272Z,7.23
2019-04-07T12:45:49.357Z,12.20
2019-04-07T12:48:19.636Z,7.83
2019-04-07T12:50:56.385Z,7.67
2019-04-07T12:53:33.494Z,7.58
2019-04-07T12:56:18.096Z,7.27
2019-04-07T12:59:04.539Z,14.07
2019-04-07T13:01:53.187Z,11.53
2019-04-07T13:04:29.892Z,7.97
2019-04-07T13:07:20.419Z,9.05
2019-04-07T13:09:52.710Z,8.30
2019-04-07T13:12:25.939Z,8.78
2019-04-07T13:14:56.053Z,9.28
2019-04-07T13:17:38.176Z,9.60
2019-04-07T13:20:08.537Z,8.73
2019-04-07T13:22:47.608Z,8.98
2019-04-07T13:25:20.088Z,9.97
2019-04-07T13:27:53.087Z,8.93
2019-04-07T13:30:39.595Z,8.80
2019-04-07T13:33:12.356Z,9.40
2019-04-07T13:35:51.851Z,9.13
2019-04-07T13:38:26.261Z,9.97
2019-04-07T13:41:08.374Z,10.20
2019-04-07T13:43:57.409Z,10.87
2019-04-07T13:46:35.445Z,10.77
2019-04-07T13:49:02.765Z,9.43
2019-04-07T13:51:33.079Z,14.00
2019-04-07T13:54:03.272Z,11.07
2019-04-07T13:56:36.500Z,10.30
2019-04-07T13:59:11.244Z,9.37
2019-04-07T14:01:41.107Z,10.03
2019-04-07T14:04:23.066Z,12.60
2019-04-07T14:06:53.379Z,11.13
2019-04-07T14:09:39.139Z,13.10
2019-04-07T14:12:13.822Z,10.23
2019-04-07T14:14:43.341Z,11.50
2019-04-07T14:17:28.347Z,12.27
2019-04-07T14:19:59.415Z,11.77
2019-04-07T14:22:35.266Z,11.20
2019-04-07T14:25:15.572Z,11.93
2019-04-07T14:27:48.120Z,11.27
2019-04-07T14:30:35.454Z,10.50
2019-04-07T14:33:25.077Z,12.03
2019-04-07T14:35:55.381Z,10.00
2019-04-07T14:38:34.604Z,11.97
2019-04-07T14:41:13.924Z,11.03
2019-04-07T14:44:03.020Z,13.97
2019-04-07T14:46:50.081Z,10.93
2019-04-07T14:49:20.244Z,11.03
2019-04-07T14:51:53.556Z,11.23
2019-04-07T14:54:40.553Z,11.40
2019-04-07T14:57:26.117Z,11.63
2019-04-07T14:59:56.327Z,11.80
2019-04-07T15:02:24.742Z,9.97
2019-04-07T15:04:54.816Z,12.57
2019-04-07T15:07:28.034Z,12.17
2019-04-07T15:10:03.817Z,10.23
2019-04-07T15:12:36.931Z,14.20
2019-04-07T15:15:08.890Z,12.13
2019-04-07T15:17:36.950Z,10.73
2019-04-07T15:20:07.482Z,11.77
2019-04-07T15:22:39.555Z,11.67
2019-04-07T15:25:10.739Z,11.50
2019-04-07T15:27:38.922Z,11.20
2019-04-07T15:30:10.653Z,12.40
2019-04-07T15:32:43.935Z,17.73
2019-04-07T15:35:15.126Z,20.37
2019-04-07T15:37:44.501Z,50.80
2019-04-07T15:40:12.938Z,27.33
2019-04-07T15:42:45.913Z,53.23
2019-04-07T15:45:16.164Z,126.70
2019-04-07T15:47:45.590Z,53.90
2019-04-07T15:50:13.904Z,32.07
2019-04-07T15:52:45.947Z,36.03
2019-04-07T15:55:14.760Z,296.40
2019-04-07T15:57:44.174Z,279.67
2019-04-07T16:00:13.106Z,68.97
2019-04-07T16:02:44.489Z,90.10
2019-04-07T16:05:12.071Z,95.10
2019-04-07T16:07:41.895Z,40.87
2019-04-07T16:10:10.251Z,37.53
2019-04-07T16:12:46.495Z,27.27
2019-04-07T16:15:16.597Z,35.93
2019-04-07T16:17:47.415Z,50.00
2019-04-07T16:20:23.100Z,59.63
2019-04-07T16:22:51.147Z,36.77
2019-04-07T16:25:19.564Z,27.90
2019-04-07T16:27:51.055Z,32.67
2019-04-07T16:30:23.398Z,26.70
2019-04-07T16:32:52.420Z,22.33
2019-04-07T16:35:21.009Z,30.53
2019-04-07T16:37:50.332Z,29.07
2019-04-07T16:40:19.581Z,36.77
2019-04-07T16:43:02.969Z,24.37
2019-04-07T16:45:18.078Z,30.60
2019-04-07T16:47:47.816Z,29.10
2019-04-07T16:50:18.863Z,24.80
2019-04-07T16:52:46.948Z,29.33
2019-04-07T16:55:34.907Z,24.40
2019-04-07T16:58:06.592Z,23.73
2019-04-07T17:00:35.575Z,25.47
2019-04-07T17:03:04.448Z,28.57
2019-04-07T17:05:33.376Z,20.80
2019-04-07T17:08:01.803Z,24.57
2019-04-07T17:10:33.832Z,21.80
2019-04-07T17:13:01.699Z,21.70
2019-04-07T17:15:30.421Z,23.67
2019-04-07T17:17:58.829Z,29.33
2019-04-07T17:20:28.412Z,27.73
2019-04-07T17:22:57.209Z,29.27
2019-04-07T17:25:25.580Z,32.37
2019-04-07T17:27:56.017Z,30.87
2019-04-07T17:30:29.343Z,30.47
2019-04-07T17:32:58.640Z,37.93
2019-04-07T17:35:28.454Z,37.83
2019-04-07T17:38:02.673Z,37.87
2019-04-07T17:40:31.926Z,41.20
2019-04-07T17:43:02.983Z,42.53
2019-04-07T17:45:45.135Z,41.43
2019-04-07T17:48:38.594Z,53.27
2019-04-07T17:51:20.063Z,55.07
2019-04-07T17:54:05.252Z,52.03
2019-04-07T17:56:50.481Z,51.50
2019-04-07T17:59:30.240Z,51.93
2019-04-07T18:02:06.482Z,46.60
2019-04-07T18:04:51.251Z,47.13
2019-04-07T18:07:27.421Z,53.87
2019-04-07T18:09:57.510Z,54.60
2019-04-07T18:12:31.611Z,56.20
2019-04-07T18:15:05.794Z,59.33
2019-04-07T18:17:44.456Z,55.93
2019-04-07T18:20:16.021Z,53.50
2019-04-07T18:22:46.104Z,55.37
2019-04-07T18:25:19.061Z,54.57
2019-04-07T18:27:59.014Z,56.53
2019-04-07T18:30:45.236Z,55.43
2019-04-07T18:33:17.633Z,56.67
2019-04-07T18:35:51.335Z,57.90
2019-04-07T18:38:28.573Z,59.53
2019-04-07T18:41:03.519Z,60.83
2019-04-07T18:43:57.996Z,59.43
2019-04-07T18:46:31.827Z,57.43
2019-04-07T18:49:11.472Z,59.53
2019-04-07T18:51:47.617Z,56.83
2019-04-07T18:54:35.490Z,54.50
2019-04-07T18:57:18.127Z,53.07
2019-04-07T18:59:59.333Z,45.33
2019-04-07T19:02:28.921Z,47.27
2019-04-07T19:05:12.935Z,49.37
2019-04-07T19:07:48.745Z,47.70
2019-04-07T19:10:23.792Z,54.77
2019-04-07T19:13:02.586Z,60.43
2019-04-07T19:15:39.641Z,52.60
2019-04-07T19:18:25.960Z,50.70
2019-04-07T19:21:03.141Z,45.30
2019-04-07T19:23:34.402Z,43.90
2019-04-07T19:26:20.756Z,44.77
2019-04-07T19:28:59.717Z,44.40
2019-04-07T19:31:39.454Z,48.87
2019-04-07T19:34:29.895Z,49.60
2019-04-07T19:37:04.286Z,48.87
2019-04-07T19:39:40.470Z,48.20
2019-04-07T19:42:14.435Z,48.23
2019-04-07T19:45:00.420Z,45.17
2019-04-07T19:47:34.508Z,47.37
2019-04-07T19:50:05.603Z,47.13
2019-04-07T19:52:47.670Z,46.67
2019-04-07T19:55:26.736Z,47.63
2019-04-07T19:58:15.465Z,45.73
2019-04-07T20:00:51.938Z,45.33
2019-04-07T20:03:22.471Z,48.60
2019-04-07T20:06:04.864Z,45.13
2019-04-07T20:08:51.765Z,44.60
2019-04-07T20:11:28.511Z,45.30
2019-04-07T20:14:16.046Z,46.80
2019-04-07T20:17:04.109Z,43.43
2019-04-07T20:19:47.048Z,42.60
2019-04-07T20:22:17.803Z,50.13
2019-04-07T20:25:08.661Z,45.30
2019-04-07T20:27:38.615Z,42.87
2019-04-07T20:30:16.424Z,42.20
2019-04-07T20:33:04.146Z,50.37
2019-04-07T20:35:53.382Z,49.37
2019-04-07T20:38:32.140Z,50.47
2019-04-07T20:41:05.363Z,49.13
2019-04-07T20:43:53.959Z,46.70
2019-04-07T20:46:41.696Z,44.97
2019-04-07T20:49:28.216Z,50.70
2019-04-07T20:52:15.790Z,56.90
2019-04-07T20:54:46.565Z,53.97
2019-04-07T20:57:23.898Z,56.80
2019-04-07T20:59:56.296Z,60.53
2019-04-07T21:02:38.941Z,47.27
2019-04-07T21:05:09.015Z,42.33
2019-04-07T21:07:57.821Z,43.03
2019-04-07T21:10:30.729Z,39.10
2019-04-07T21:13:10.929Z,42.13
2019-04-07T21:15:57.302Z,43.70
2019-04-07T21:18:40.252Z,42.87
2019-04-07T21:21:17.101Z,40.10
2019-04-07T21:23:48.013Z,39.60
2019-04-07T21:26:18.481Z,40.00
2019-04-07T21:28:48.532Z,44.20
2019-04-07T21:31:19.977Z,41.63
2019-04-07T21:33:50.766Z,39.43
2019-04-07T21:36:21.749Z,38.63
2019-04-07T21:39:08.668Z,39.77
2019-04-07T21:41:54.869Z,49.43
2019-04-07T21:44:29.220Z,43.00
2019-04-07T21:47:18.480Z,38.80
2019-04-07T21:49:54.486Z,39.17
2019-04-07T21:52:24.813Z,42.37
2019-04-07T21:54:55.591Z,40.60
2019-04-07T21:57:25.649Z,40.60
2019-04-07T22:00:12.621Z,40.47
2019-04-07T22:02:44.632Z,42.60
2019-04-07T22:05:15.589Z,43.80
2019-04-07T22:07:48.432Z,45.67
2019-04-07T22:10:20.305Z,46.53
2019-04-07T22:12:46.499Z,52.10
2019-04-07T22:15:15.381Z,49.70
2019-04-07T22:17:43.798Z,43.93
2019-04-07T22:20:14.834Z,44.77
2019-04-07T22:22:43.011Z,43.07
2019-04-07T22:25:11.585Z,42.03
2019-04-07T22:27:39.952Z,45.20
2019-04-07T22:30:09.894Z,41.93
2019-04-07T22:32:38.509Z,43.17
2019-04-07T22:35:07.134Z,43.57
2019-04-07T22:37:35.665Z,41.60
2019-04-07T22:40:06.290Z,43.10
2019-04-07T22:42:35.056Z,42.23
2019-04-07T22:45:04.011Z,45.33
2019-04-07T22:47:33.625Z,45.90
2019-04-07T22:50:04.437Z,38.73
2019-04-07T22:52:32.047Z,43.50
2019-04-07T22:55:03.625Z,38.97
2019-04-07T22:57:30.203Z,39.43
2019-04-07T22:59:58.770Z,38.40
2019-04-07T23:02:27.611Z,35.73
2019-04-07T23:04:56.258Z,36.07
2019-04-07T23:07:25.332Z,41.33
2019-04-07T23:09:53.838Z,41.23
2019-04-07T23:12:22.374Z,40.67
2019-04-07T23:14:50.927Z,41.97
2019-04-07T23:17:19.643Z,45.87
2019-04-07T23:19:48.327Z,47.40
2019-04-07T23:22:16.561Z,47.07
2019-04-07T23:24:45.314Z,44.87
2019-04-07T23:27:14.521Z,44.07
2019-04-07T23:29:43.071Z,41.83
2019-04-07T23:32:11.707Z,43.23
2019-04-07T23:34:39.990Z,43.07
2019-04-07T23:37:08.397Z,52.20
2019-04-07T23:39:37.712Z,42.77
2019-04-07T23:42:05.831Z,55.00
2019-04-07T23:44:34.054Z,44.27
2019-04-07T23:47:02.721Z,41.40
2019-04-07T23:49:32.300Z,43.53
2019-04-07T23:52:00.701Z,51.33
2019-04-07T23:54:29.322Z,43.83
2019-04-07T23:56:58.169Z,43.40
2019-04-07T23:59:27.076Z,38.17
